LHBC 191445Z 35006KT CAVOK 32/13 Q1017        

LHBP 191630Z 06004KT 360V080 CAVOK 31/14 Q1017 NOSIG        

LHDC 191615Z 01005KT CAVOK 31/12 Q1017 NOSIG        

LHKE 191615Z 07006KT 030V110 CAVOK 32/13 Q1017 NOSIG RMK BLU        

LHPA 191615Z 20004KT 9999 FEW053TCU 29/16 Q1017 NOSIG RMK BLU        

LHPP 191615Z 32003KT 9999 FEW053CB SCT200 28/18 Q1018        

LHPR 191615Z AUTO VRB03KT CAVOK 32/12 Q1017 RMK BLU        

LHSM 191615Z 18004KT 9999 FEW043 29/18 Q1018        

LHSN 191615Z 06008KT CAVOK 31/12 Q1017 NOSIG RMK BLU        

LHUD 191615Z 35008KT CAVOK 33/14 Q1016